Time;durP1;ratioP1;P1;durP2;ratioP2;P2;SDS_P1;SDS_P2;PMS_P1;PMS_P2;Temp;Humidity;BMP_temperature;BMP_pressure;BME280_temperature;BME280_humidity;BME280_pressure;Samples;Min_cycle;Max_cycle;Signal;HPM_P1;HPM_P2
2022/10/14 00:01:05;;;;;;;767.20;27.20;;;10.70;99.90;;;;;;4845169;29;20143;-96
2022/10/14 00:03:32;;;;;;;947.63;32.95;;;10.20;99.90;;;;;;4847687;29;20495;-96
2022/10/14 00:05:57;;;;;;;680.30;26.90;;;10.50;99.90;;;;;;4856068;29;20045;-96
2022/10/14 00:08:25;;;;;;;515.38;18.77;;;10.40;99.90;;;;;;4863545;29;20061;-96
2022/10/14 00:10:51;;;;;;;901.67;29.95;;;10.10;99.90;;;;;;4863237;29;20160;-96
2022/10/14 00:13:17;;;;;;;388.23;15.23;;;10.30;99.90;;;;;;4863426;29;20045;-96
2022/10/14 00:15:42;;;;;;;321.38;12.65;;;10.20;99.90;;;;;;4863607;29;20161;-96
2022/10/14 00:18:09;;;;;;;437.58;15.63;;;10.20;99.90;;;;;;4863303;29;20052;-96
2022/10/14 00:20:37;;;;;;;240.88;21.90;;;10.00;99.90;;;;;;4862578;29;20153;-96
2022/10/14 00:23:03;;;;;;;548.63;31.90;;;10.10;99.90;;;;;;4862880;29;20136;-96
2022/10/14 00:25:36;;;;;;;497.77;39.60;;;10.10;99.90;;;;;;4863076;29;20092;-96
2022/10/14 00:28:02;;;;;;;426.48;47.83;;;10.10;99.90;;;;;;4862494;29;20056;-96
2022/10/14 00:30:28;;;;;;;554.90;59.70;;;10.30;99.90;;;;;;4863876;29;20045;-96
2022/10/14 00:32:54;;;;;;;384.88;48.78;;;10.50;99.90;;;;;;4862928;29;20092;-96
2022/10/14 00:35:20;;;;;;;545.28;60.63;;;10.60;99.90;;;;;;4861977;29;20065;-96
2022/10/14 00:37:46;;;;;;;453.23;48.58;;;10.70;99.90;;;;;;4862582;29;20049;-96
2022/10/14 00:40:14;;;;;;;300.92;40.80;;;10.70;99.90;;;;;;4862917;29;20052;-96
2022/10/14 00:42:40;;;;;;;478.98;61.78;;;11.70;99.90;;;;;;4863841;29;20052;-96
2022/10/14 00:45:12;;;;;;;380.33;47.05;;;10.80;99.90;;;;;;4863550;29;20057;-96
2022/10/14 00:47:39;;;;;;;253.52;42.53;;;10.80;99.90;;;;;;4863442;29;20140;-96
2022/10/14 00:50:09;;;;;;;279.63;42.53;;;11.00;99.90;;;;;;4862219;29;20049;-95
2022/10/14 00:52:35;;;;;;;328.13;42.50;;;10.90;99.90;;;;;;4863642;29;20053;-95
2022/10/14 00:55:05;;;;;;;215.55;34.25;;;11.10;99.90;;;;;;4862167;29;20270;-96
2022/10/14 00:57:33;;;;;;;248.98;35.88;;;11.10;99.90;;;;;;4863124;29;20049;-95
2022/10/14 01:00:05;;;;;;;181.38;32.30;;;11.10;99.90;;;;;;4862358;29;20335;-96
2022/10/14 01:02:31;;;;;;;161.10;28.93;;;10.80;99.90;;;;;;4862730;29;20057;-95
2022/10/14 01:04:57;;;;;;;252.93;37.10;;;11.00;99.90;;;;;;4862246;29;20056;-96
2022/10/14 01:07:36;;;;;;;157.23;30.15;;;11.00;99.90;;;;;;4862552;29;20486;-96
2022/10/14 01:10:06;;;;;;;117.07;28.73;;;11.00;99.90;;;;;;4861756;29;20057;-96
2022/10/14 01:12:35;;;;;;;297.77;32.60;;;10.90;99.90;;;;;;4863000;29;20041;-95
2022/10/14 01:15:26;;;;;;;217.02;29.48;;;10.70;99.90;;;;;;4863761;29;20060;-96
2022/10/14 01:18:15;;;;;;;242.43;29.55;;;10.70;99.90;;;;;;4864165;29;20053;-96
2022/10/14 01:20:48;;;;;;;228.75;27.58;;;10.60;99.90;;;;;;4862411;29;20442;-96
2022/10/14 01:23:27;;;;;;;285.00;33.00;;;10.60;99.90;;;;;;4863602;29;20057;-96
2022/10/14 01:26:23;;;;;;;259.83;27.75;;;10.60;99.90;;;;;;4864282;29;20086;-96
2022/10/14 01:29:18;;;;;;;264.08;28.83;;;10.50;99.90;;;;;;4863909;29;20048;-96
2022/10/14 01:31:47;;;;;;;139.82;23.67;;;10.50;99.90;;;;;;4847744;29;20052;-96
2022/10/14 01:34:21;;;;;;;274.83;30.05;;;10.50;99.90;;;;;;4847976;29;20053;-96
2022/10/14 01:36:55;;;;;;;235.85;29.95;;;10.60;99.90;;;;;;4847127;29;20042;-96
2022/10/14 01:39:29;;;;;;;218.23;27.50;;;10.70;99.90;;;;;;4847448;29;20053;-96
2022/10/14 01:42:03;;;;;;;272.15;30.83;;;10.40;99.90;;;;;;4846967;29;20138;-96
2022/10/14 01:44:36;;;;;;;214.07;25.50;;;10.40;99.90;;;;;;4844735;29;20514;-96
2022/10/14 01:47:05;;;;;;;276.55;26.88;;;10.90;99.90;;;;;;4845551;29;20149;-96
2022/10/14 01:49:34;;;;;;;392.50;30.23;;;10.50;99.90;;;;;;4844537;29;20388;-96
2022/10/14 01:52:09;;;;;;;373.20;27.83;;;10.40;99.90;;;;;;4848563;29;20046;-96
2022/10/14 01:54:40;;;;;;;356.15;28.60;;;10.50;99.90;;;;;;4848010;29;20506;-96
2022/10/14 01:57:10;;;;;;;305.52;28.02;;;10.30;99.90;;;;;;4846658;29;20053;-96
2022/10/14 01:59:39;;;;;;;397.30;28.48;;;10.50;99.90;;;;;;4846168;29;20108;-96
2022/10/14 02:02:05;;;;;;;375.35;29.85;;;10.50;99.90;;;;;;4845539;29;20053;-96
2022/10/14 02:04:31;;;;;;;307.63;29.33;;;10.40;99.90;;;;;;4845298;29;20056;-96
2022/10/14 02:07:06;;;;;;;277.85;26.48;;;10.20;99.90;;;;;;4859017;29;20414;-96
2022/10/14 02:09:37;;;;;;;296.63;27.15;;;10.30;99.90;;;;;;4842843;29;20064;-96
2022/10/14 02:12:15;;;;;;;322.92;26.48;;;10.30;99.90;;;;;;4843439;29;20077;-96
2022/10/14 02:14:47;;;;;;;303.15;26.02;;;10.30;99.90;;;;;;4844074;29;20080;-96
2022/10/14 02:17:22;;;;;;;256.05;23.23;;;10.10;99.90;;;;;;4848229;29;20081;-96
2022/10/14 02:19:56;;;;;;;262.45;24.48;;;10.30;99.90;;;;;;4855800;29;20057;-96
2022/10/14 02:22:32;;;;;;;278.38;27.60;;;10.30;99.90;;;;;;4858968;29;20057;-96
2022/10/14 02:25:04;;;;;;;374.20;30.77;;;10.30;99.90;;;;;;4858282;29;20057;-96
2022/10/14 02:27:31;;;;;;;294.63;24.77;;;10.10;99.90;;;;;;4858937;29;20050;-96
2022/10/14 02:29:58;;;;;;;439.80;29.85;;;10.10;99.90;;;;;;4858191;29;20041;-96
2022/10/14 02:32:25;;;;;;;318.55;26.85;;;10.10;99.90;;;;;;4858556;29;20041;-96
2022/10/14 02:34:53;;;;;;;318.40;26.15;;;10.20;99.90;;;;;;4857121;29;20046;-96
2022/10/14 02:37:21;;;;;;;295.70;27.15;;;10.10;99.90;;;;;;4859204;29;20395;-96
2022/10/14 02:39:59;;;;;;;236.10;21.95;;;10.00;99.90;;;;;;4856710;29;20049;-96
2022/10/14 02:42:26;;;;;;;332.42;24.63;;;10.20;99.90;;;;;;4857139;29;20199;-96
2022/10/14 02:44:58;;;;;;;243.00;23.35;;;10.20;99.90;;;;;;4856813;29;20049;-96
2022/10/14 02:47:25;;;;;;;353.42;27.08;;;10.20;99.90;;;;;;4857289;29;20061;-96
2022/10/14 02:49:51;;;;;;;329.05;25.90;;;10.00;99.90;;;;;;4858226;29;20479;-96
2022/10/14 02:52:17;;;;;;;308.70;23.02;;;10.10;99.90;;;;;;4859682;29;20056;-96
2022/10/14 02:54:43;;;;;;;290.85;24.52;;;10.00;99.90;;;;;;4858705;29;20050;-96
2022/10/14 02:57:08;;;;;;;301.88;25.80;;;10.20;99.90;;;;;;4857825;29;20084;-96
2022/10/14 02:59:34;;;;;;;299.58;24.20;;;9.90;99.90;;;;;;4858934;29;20521;-96
2022/10/14 03:02:00;;;;;;;295.73;25.63;;;10.10;99.90;;;;;;4857325;29;20081;-96
2022/10/14 03:04:26;;;;;;;299.50;23.13;;;10.00;99.90;;;;;;4859101;29;20133;-96
2022/10/14 03:06:52;;;;;;;405.65;26.70;;;9.90;99.90;;;;;;4857896;29;20105;-96
2022/10/14 03:09:18;;;;;;;285.48;22.10;;;10.10;99.90;;;;;;4868625;29;20053;-96
2022/10/14 03:11:44;;;;;;;234.48;19.85;;;10.00;99.90;;;;;;4875892;29;20092;-96
2022/10/14 03:14:11;;;;;;;259.48;19.50;;;10.10;99.90;;;;;;4875857;29;20079;-96
2022/10/14 03:16:39;;;;;;;264.20;20.67;;;9.90;99.90;;;;;;4875649;29;20108;-96
2022/10/14 03:19:05;;;;;;;272.70;19.67;;;9.90;99.90;;;;;;4876386;29;20061;-96
2022/10/14 03:21:30;;;;;;;232.38;19.05;;;9.90;99.90;;;;;;4876036;29;20049;-96
2022/10/14 03:24:00;;;;;;;206.00;17.65;;;10.00;99.90;;;;;;4876286;29;20101;-96
2022/10/14 03:26:26;;;;;;;264.25;19.77;;;9.70;99.90;;;;;;4876273;29;20049;-96
2022/10/14 03:28:52;;;;;;;221.27;17.55;;;9.80;99.90;;;;;;4876500;29;20052;-96
2022/10/14 03:31:21;;;;;;;210.02;18.35;;;9.80;99.90;;;;;;4876281;29;20067;-96
2022/10/14 03:33:47;;;;;;;232.88;16.50;;;9.80;99.90;;;;;;4876909;29;20486;-96
2022/10/14 03:36:13;;;;;;;193.98;18.08;;;10.00;99.90;;;;;;4875901;29;20088;-96
2022/10/14 03:38:39;;;;;;;246.20;17.48;;;9.90;99.90;;;;;;4877042;29;20636;-96
2022/10/14 03:41:04;;;;;;;213.00;16.48;;;9.90;99.90;;;;;;4877993;29;20053;-96
2022/10/14 03:43:33;;;;;;;209.80;15.15;;;9.80;99.90;;;;;;4874390;29;20130;-96
2022/10/14 03:45:59;;;;;;;256.05;16.55;;;9.90;99.90;;;;;;4857971;29;20507;-96
2022/10/14 03:48:27;;;;;;;330.60;16.77;;;9.70;99.90;;;;;;4859745;29;20065;-96
2022/10/14 03:50:52;;;;;;;275.90;16.13;;;9.70;99.90;;;;;;4858756;29;20056;-96
2022/10/14 03:53:21;;;;;;;251.35;16.60;;;9.70;99.90;;;;;;4858261;29;20410;-96
2022/10/14 03:55:47;;;;;;;264.00;15.25;;;9.80;99.90;;;;;;4857304;29;20053;-96
2022/10/14 03:58:12;;;;;;;275.90;17.77;;;9.80;99.90;;;;;;4878557;29;20136;-96
2022/10/14 04:00:38;;;;;;;176.27;15.35;;;9.60;99.90;;;;;;4880850;29;20061;-96
2022/10/14 04:03:07;;;;;;;272.75;17.45;;;9.80;99.90;;;;;;4880568;29;20073;-96
2022/10/14 04:05:33;;;;;;;208.48;15.90;;;9.80;99.90;;;;;;4879479;29;20049;-96
2022/10/14 04:08:00;;;;;;;262.05;17.83;;;9.60;99.90;;;;;;4883150;29;20143;-96
2022/10/14 04:10:26;;;;;;;221.68;19.10;;;9.80;99.90;;;;;;4884408;29;20140;-96
2022/10/14 04:12:56;;;;;;;260.85;20.38;;;9.70;99.90;;;;;;4887526;29;20078;-96
2022/10/14 04:15:22;;;;;;;159.18;18.52;;;9.70;99.90;;;;;;4885467;29;20051;-96
2022/10/14 04:17:48;;;;;;;180.82;18.15;;;9.80;99.90;;;;;;4885833;29;20058;-96
2022/10/14 04:20:15;;;;;;;156.10;16.58;;;9.80;99.90;;;;;;4886935;29;20044;-93
2022/10/14 04:22:41;;;;;;;230.50;20.70;;;10.40;99.90;;;;;;4869279;29;20113;-96
2022/10/14 04:25:08;;;;;;;178.30;19.40;;;10.00;99.90;;;;;;4851238;29;20095;-96
2022/10/14 04:27:34;;;;;;;159.20;19.40;;;9.90;99.90;;;;;;4849538;29;20428;-96
2022/10/14 04:30:00;;;;;;;119.25;19.75;;;9.80;99.90;;;;;;4851461;29;20059;-96
2022/10/14 04:32:28;;;;;;;160.55;21.83;;;10.10;99.90;;;;;;4849656;29;20105;-96
2022/10/14 04:34:54;;;;;;;149.18;21.13;;;9.90;99.90;;;;;;4848826;29;20060;-96
2022/10/14 04:37:22;;;;;;;131.45;18.92;;;10.10;99.90;;;;;;4849845;29;20045;-96
2022/10/14 04:39:48;;;;;;;130.27;20.30;;;10.10;99.90;;;;;;4847834;29;20057;-96
2022/10/14 04:42:14;;;;;;;145.20;21.55;;;9.90;99.90;;;;;;4848801;29;20048;-96
2022/10/14 04:44:40;;;;;;;132.98;21.60;;;10.00;99.90;;;;;;4850156;29;20052;-96
2022/10/14 04:47:05;;;;;;;143.27;22.75;;;10.20;99.90;;;;;;4847517;29;20051;-96
2022/10/14 04:49:34;;;;;;;179.52;23.17;;;10.00;99.90;;;;;;4847909;29;20156;-96
2022/10/14 04:52:00;;;;;;;111.43;21.50;;;10.10;99.90;;;;;;4847937;29;20475;-96
2022/10/14 04:54:26;;;;;;;161.85;24.15;;;10.20;99.90;;;;;;4849869;29;20053;-96
2022/10/14 04:57:31;;;;;;;151.75;23.13;;;10.20;99.90;;;;;;4847106;29;20041;-95
2022/10/14 05:00:19;;;;;;;149.32;20.38;;;10.20;99.90;;;;;;4846590;29;20084;-95
2022/10/14 05:02:45;;;;;;;173.48;19.92;;;10.20;99.90;;;;;;4851243;29;20061;-96
2022/10/14 05:05:11;;;;;;;195.90;22.10;;;10.30;99.90;;;;;;4850721;29;20076;-96
2022/10/14 05:07:37;;;;;;;155.02;21.30;;;10.20;99.90;;;;;;4851053;29;20379;-96
2022/10/14 05:10:03;;;;;;;150.80;19.30;;;10.20;99.90;;;;;;4849849;29;20113;-96
2022/10/14 05:12:30;;;;;;;139.07;19.73;;;10.20;99.90;;;;;;4868018;29;20116;-96
2022/10/14 05:14:56;;;;;;;160.75;20.20;;;10.10;99.90;;;;;;4861852;29;20036;-94
2022/10/14 05:17:22;;;;;;;128.68;17.83;;;10.30;99.90;;;;;;4859330;29;20040;-96
2022/10/14 05:19:48;;;;;;;140.93;18.25;;;10.10;99.90;;;;;;4861184;29;20052;-96
2022/10/14 05:22:13;;;;;;;142.02;18.42;;;10.20;99.90;;;;;;4864352;29;20043;-96
2022/10/14 05:24:39;;;;;;;102.05;17.17;;;10.30;99.90;;;;;;4857098;29;20622;-96
2022/10/14 05:27:08;;;;;;;174.98;18.98;;;10.20;99.90;;;;;;4864742;29;20056;-96
2022/10/14 05:29:34;;;;;;;135.15;16.67;;;10.20;99.90;;;;;;4859029;29;20180;-96
2022/10/14 05:32:00;;;;;;;211.40;16.55;;;10.10;99.90;;;;;;4863668;29;20036;-96
2022/10/14 05:34:25;;;;;;;143.40;14.50;;;10.10;99.90;;;;;;4859175;29;20059;-96
2022/10/14 05:36:51;;;;;;;185.07;16.42;;;10.30;99.90;;;;;;4864725;29;20481;-96
2022/10/14 05:39:17;;;;;;;115.07;16.58;;;10.10;99.90;;;;;;4866312;29;20066;-96
2022/10/14 05:41:43;;;;;;;127.75;16.02;;;10.00;99.90;;;;;;4865719;29;20051;-96
2022/10/14 05:44:10;;;;;;;179.27;17.95;;;10.20;99.90;;;;;;4865933;29;20135;-96
2022/10/14 05:46:36;;;;;;;132.48;16.48;;;10.00;99.90;;;;;;4864627;29;20052;-96
2022/10/14 05:49:04;;;;;;;97.72;14.70;;;10.00;99.90;;;;;;4865058;29;20144;-95
2022/10/14 05:51:59;;;;;;;106.07;16.73;;;10.00;99.90;;;;;;4884893;23;20060;-96
2022/10/14 05:54:51;;;;;;;115.35;16.58;;;10.30;99.90;;;;;;5325571;23;20120;-96
2022/10/14 05:57:20;;;;;;;93.35;13.80;;;10.10;99.90;;;;;;4902127;29;20057;-96
2022/10/14 06:02:22;;;;;;;118.90;16.08;;;10.10;99.90;;;;;;5226577;23;20049;-96
2022/10/14 06:04:51;;;;;;;60.30;15.82;;;10.30;99.90;;;;;;4885664;29;20056;-96
2022/10/14 06:07:20;;;;;;;96.78;15.32;;;10.30;99.90;;;;;;4875123;29;20063;-96
2022/10/14 06:09:49;;;;;;;63.42;14.82;;;10.40;99.90;;;;;;4866420;29;20489;-96
2022/10/14 06:12:15;;;;;;;101.85;16.60;;;10.10;99.90;;;;;;4882628;29;20049;-96
2022/10/14 06:14:41;;;;;;;82.80;15.85;;;10.30;99.90;;;;;;4859562;29;20044;-96
2022/10/14 08:21:42;;;;;;;;;;;;;;;;;;;;;
2022/10/14 08:25:13;;;;;;;;;;;;;;;;;;;;;
2022/10/14 08:27:58;;;;;;;;;;;;;;;;;;;;;
2022/10/14 08:30:47;;;;;;;96.45;30.60;;;11.50;99.90;;;;;;4886936;23;20052;-95
2022/10/14 08:37:09;;;;;;;;;;;;;;;;;;;;;
2022/10/14 09:09:43;;;;;;;57.65;27.38;;;12.10;99.90;;;;;;4912877;29;20067;-92
2022/10/14 09:12:41;;;;;;;62.17;26.33;;;12.40;99.90;;;;;;4861327;29;20052;-93
2022/10/14 09:15:59;;;;;;;;;;;;;;;;;;;;;
2022/10/14 09:20:10;;;;;;;;;;;;;;;;;;;;;
2022/10/14 09:23:18;;;;;;;52.42;25.40;;;12.10;99.90;;;;;;4877359;29;20052;-95
2022/10/14 09:33:25;;;;;;;;;;;;;;;;;;;;;
2022/10/14 09:36:20;;;;;;;51.70;26.23;;;12.20;99.90;;;;;;4878402;29;20098;-94
2022/10/14 09:39:47;;;;;;;;;;;;;;;;;;;;;
2022/10/14 09:42:56;;;;;;;52.70;26.83;;;12.30;99.90;;;;;;4878936;29;20048;-95
2022/10/14 09:46:19;;;;;;;;;;;;;;;;;;;;;
2022/10/14 09:50:02;;;;;;;;;;;;;;;;;;;;;
2022/10/14 09:57:36;;;;;;;47.15;26.10;;;12.70;99.90;;;;;;4820509;29;20057;-95
2022/10/14 10:00:15;;;;;;;;;;;;;;;;;;;;;
2022/10/14 10:03:25;;;;;;;53.25;27.05;;;12.60;99.90;;;;;;4878217;29;20443;-94
2022/10/14 10:06:19;;;;;;;;;;;;;;;;;;;;;
2022/10/14 10:09:27;;;;;;;;;;;;;;;;;;;;;
2022/10/14 10:12:25;;;;;;;48.22;26.02;;;12.80;99.90;;;;;;4816579;29;20516;-94
2022/10/14 10:23:21;;;;;;;44.20;25.17;;;12.90;99.90;;;;;;4808934;29;20088;-90
2022/10/14 10:29:40;;;;;;;48.47;24.92;;;13.10;99.90;;;;;;4788256;29;20122;-90
2022/10/14 10:32:43;;;;;;;47.10;25.00;;;13.10;99.90;;;;;;4864459;29;20090;-91
2022/10/14 10:35:43;;;;;;;;;;;;;;;;;;;;;
2022/10/14 10:38:44;;;;;;;44.78;23.48;;;12.80;99.90;;;;;;4895997;29;20497;-95
2022/10/14 15:49:19;;;;;;;;;;;;;;;;;;;;;
2022/10/14 15:52:30;;;;;;;22.05;13.07;;;14.20;99.90;;;;;;4912424;29;20375;-93
2022/10/14 15:58:54;;;;;;;23.17;13.10;;;14.30;99.90;;;;;;4818747;29;20088;-95
2022/10/14 16:06:35;;;;;;;27.02;14.70;;;14.00;99.90;;;;;;5088079;23;20056;-87
2022/10/14 16:09:07;;;;;;;29.00;14.73;;;14.20;99.90;;;;;;4877982;29;20044;-90
2022/10/14 16:11:36;;;;;;;28.30;15.43;;;14.00;99.90;;;;;;4885329;29;20425;-91
2022/10/14 20:34:47;;;;;;;59.03;30.48;;;12.80;99.90;;;;;;1565841;23;20457;-96
2022/10/14 20:37:13;;;;;;;55.55;29.55;;;12.50;99.90;;;;;;4860054;29;20058;-96
2022/10/14 20:39:40;;;;;;;57.08;28.95;;;12.40;99.90;;;;;;4830322;29;20046;-96
2022/10/14 20:42:07;;;;;;;56.40;29.13;;;12.40;99.90;;;;;;4829892;29;20063;-96
2022/10/14 20:44:33;;;;;;;59.08;27.65;;;12.80;99.90;;;;;;4829538;29;20117;-96
2022/10/14 20:46:59;;;;;;;54.83;27.95;;;12.60;99.90;;;;;;4829781;29;20144;-96
2022/10/14 20:49:25;;;;;;;51.13;28.25;;;12.40;99.90;;;;;;4829898;29;20136;-96
2022/10/14 20:51:51;;;;;;;51.72;27.45;;;12.60;99.90;;;;;;4829251;29;20050;-96
2022/10/14 20:54:16;;;;;;;51.40;27.48;;;12.40;99.90;;;;;;4829503;29;20089;-96
2022/10/14 20:56:45;;;;;;;53.17;27.58;;;12.90;99.90;;;;;;4833535;29;20070;-96
2022/10/14 20:59:11;;;;;;;54.70;28.83;;;12.30;99.90;;;;;;4830101;29;20112;-95
2022/10/14 21:01:40;;;;;;;53.53;27.65;;;12.50;99.90;;;;;;4829852;29;20071;-95
2022/10/14 21:04:07;;;;;;;52.95;27.52;;;12.30;99.90;;;;;;4828641;29;20468;-96
2022/10/14 21:06:34;;;;;;;52.13;29.17;;;12.30;99.90;;;;;;4844227;29;20080;-96
2022/10/14 21:09:00;;;;;;;55.90;29.83;;;12.50;99.90;;;;;;4844295;29;20140;-95
2022/10/14 21:11:26;;;;;;;55.00;29.13;;;12.20;99.90;;;;;;4829729;29;20060;-95
2022/10/14 21:13:55;;;;;;;57.95;29.25;;;12.40;99.90;;;;;;4830808;29;20077;-95
2022/10/14 21:16:30;;;;;;;58.63;30.50;;;12.40;99.90;;;;;;4844174;29;20045;-96
2022/10/14 21:18:58;;;;;;;59.90;28.80;;;12.30;99.90;;;;;;4843789;29;20084;-96
2022/10/14 21:21:27;;;;;;;61.40;29.23;;;12.20;99.90;;;;;;4835781;29;20071;-96
2022/10/14 21:23:54;;;;;;;55.53;28.85;;;12.40;99.90;;;;;;4843894;29;20061;-96
2022/10/14 21:26:20;;;;;;;62.60;29.63;;;12.30;99.90;;;;;;4844539;29;20042;-96
2022/10/14 21:28:46;;;;;;;56.75;30.30;;;12.30;99.90;;;;;;4829097;29;20112;-95
2022/10/14 21:31:15;;;;;;;58.22;29.95;;;12.20;99.90;;;;;;4829621;29;20060;-95
2022/10/14 21:33:41;;;;;;;58.97;30.23;;;12.30;99.90;;;;;;4828178;29;20440;-95
2022/10/14 21:36:11;;;;;;;56.63;29.48;;;12.30;99.90;;;;;;4827782;29;20085;-96
2022/10/14 21:38:38;;;;;;;56.65;29.70;;;12.30;99.90;;;;;;4828407;29;20140;-95
2022/10/14 21:41:06;;;;;;;64.65;31.15;;;12.10;99.90;;;;;;4828490;29;20133;-96
2022/10/14 21:43:35;;;;;;;60.47;33.42;;;12.30;99.90;;;;;;4828780;29;20166;-95
2022/10/14 21:46:03;;;;;;;74.95;34.80;;;12.30;99.90;;;;;;4827959;29;20053;-94
2022/10/14 21:48:29;;;;;;;63.28;34.20;;;12.10;99.90;;;;;;4828285;29;20083;-95
2022/10/14 21:51:04;;;;;;;66.85;32.65;;;12.40;99.90;;;;;;4828079;29;20137;-95
2022/10/14 21:53:31;;;;;;;70.00;33.58;;;12.10;99.90;;;;;;4828254;29;20132;-96
2022/10/14 21:55:57;;;;;;;64.25;30.10;;;12.20;99.90;;;;;;4828567;29;20057;-95
2022/10/14 21:58:23;;;;;;;61.15;31.90;;;12.30;99.90;;;;;;4828350;29;20081;-95
2022/10/14 22:00:49;;;;;;;63.25;31.95;;;12.30;99.90;;;;;;4828057;29;20124;-96
2022/10/14 22:03:16;;;;;;;61.50;31.30;;;12.10;99.90;;;;;;4828216;29;20061;-95
2022/10/14 22:05:46;;;;;;;70.45;34.08;;;12.30;99.90;;;;;;4827342;29;20048;-95
2022/10/14 22:08:12;;;;;;;67.68;33.55;;;12.30;99.90;;;;;;4844135;29;20048;-96
2022/10/14 22:10:44;;;;;;;74.13;35.78;;;12.20;99.90;;;;;;4843407;29;20079;-95
2022/10/14 22:13:10;;;;;;;67.75;35.70;;;11.50;99.90;;;;;;4843498;29;20085;-96
2022/10/14 22:15:41;;;;;;;72.78;35.90;;;12.10;99.90;;;;;;4827809;29;20498;-96
2022/10/14 22:18:08;;;;;;;69.28;35.75;;;12.10;99.90;;;;;;4830353;29;20112;-96
2022/10/14 22:20:34;;;;;;;79.07;37.50;;;12.20;99.90;;;;;;4846261;29;20048;-95
2022/10/14 22:22:59;;;;;;;67.90;34.88;;;12.50;99.90;;;;;;4846223;29;20053;-96
2022/10/14 22:25:25;;;;;;;70.75;33.95;;;12.30;99.90;;;;;;4846062;29;20045;-96
2022/10/14 22:27:51;;;;;;;69.78;34.75;;;12.30;99.90;;;;;;4846098;29;20049;-95
2022/10/14 22:30:17;;;;;;;63.67;31.83;;;12.30;99.90;;;;;;4845712;29;20832;-96
2022/10/14 22:32:43;;;;;;;65.40;32.50;;;12.00;99.90;;;;;;4864093;29;20501;-96
2022/10/14 22:35:18;;;;;;;66.32;32.05;;;12.30;99.90;;;;;;4868298;29;20096;-95
2022/10/14 22:37:47;;;;;;;71.40;33.33;;;12.00;99.90;;;;;;4865158;29;20049;-96
2022/10/14 22:40:20;;;;;;;67.32;33.05;;;12.30;99.90;;;;;;4857193;29;20143;-96
2022/10/14 22:42:53;;;;;;;65.72;32.20;;;12.20;99.90;;;;;;4864835;29;20501;-96
2022/10/14 22:45:26;;;;;;;72.72;33.20;;;12.40;99.90;;;;;;4850673;29;20057;-96
2022/10/14 22:47:57;;;;;;;72.00;33.72;;;12.20;99.90;;;;;;4844197;29;20144;-95
2022/10/14 22:50:25;;;;;;;80.93;35.35;;;12.10;99.90;;;;;;4842474;29;20057;-96
2022/10/14 22:52:51;;;;;;;73.68;34.42;;;12.30;99.90;;;;;;4842452;29;20062;-95
2022/10/14 22:55:17;;;;;;;76.13;34.83;;;12.30;99.90;;;;;;4843433;29;20045;-96
2022/10/14 22:58:02;;;;;;;83.40;36.78;;;12.30;99.90;;;;;;4843096;29;20479;-95
2022/10/14 23:00:30;;;;;;;74.45;36.67;;;12.00;99.90;;;;;;4857822;29;20106;-96
2022/10/14 23:03:01;;;;;;;78.50;36.55;;;12.10;99.90;;;;;;4859097;29;20116;-95
2022/10/14 23:05:32;;;;;;;74.32;36.17;;;12.30;99.90;;;;;;4860533;29;20056;-96
2022/10/14 23:07:59;;;;;;;79.80;37.03;;;12.00;99.90;;;;;;4845327;29;20041;-96
2022/10/14 23:10:43;;;;;;;73.80;36.90;;;12.00;99.90;;;;;;4845217;29;20048;-96
2022/10/14 23:13:21;;;;;;;75.88;36.78;;;12.00;99.90;;;;;;4845138;29;20080;-95
2022/10/14 23:16:07;;;;;;;81.68;36.58;;;12.00;99.90;;;;;;4862463;29;20045;-94
2022/10/14 23:18:41;;;;;;;80.00;37.08;;;12.10;99.90;;;;;;4861180;29;20053;-95
2022/10/14 23:21:38;;;;;;;75.90;35.47;;;12.30;99.90;;;;;;4847115;29;20051;-96
2022/10/14 23:24:15;;;;;;;89.97;38.03;;;12.10;99.90;;;;;;4860699;29;20409;-95
2022/10/14 23:27:02;;;;;;;82.85;38.92;;;12.20;99.90;;;;;;4846218;29;20106;-96
2022/10/14 23:29:27;;;;;;;84.43;38.78;;;12.10;99.90;;;;;;4845446;29;20061;-95
2022/10/14 23:32:05;;;;;;;;;;;;;;;;;;;;;
2022/10/14 23:34:36;;;;;;;94.25;43.78;;;12.30;99.90;;;;;;4860736;29;20069;-95
2022/10/14 23:37:08;;;;;;;94.95;42.90;;;12.20;99.90;;;;;;4860027;29;20143;-95
2022/10/14 23:39:38;;;;;;;95.18;42.75;;;12.20;99.90;;;;;;4844517;29;20143;-96
2022/10/14 23:42:21;;;;;;;94.82;43.05;;;11.80;99.90;;;;;;4846557;29;20060;-96
2022/10/14 23:44:47;;;;;;;85.65;42.88;;;12.00;99.90;;;;;;4844654;29;20041;-96
2022/10/14 23:47:16;;;;;;;93.18;44.97;;;12.10;99.90;;;;;;4846269;29;20152;-95
2022/10/14 23:49:44;;;;;;;99.63;44.55;;;12.30;99.90;;;;;;4846091;29;20557;-96
2022/10/14 23:52:12;;;;;;;92.25;42.90;;;12.30;99.90;;;;;;4844896;29;20049;-94
2022/10/14 23:54:55;;;;;;;;;;;;;;;;;;;;;
2022/10/14 23:57:27;;;;;;;100.13;45.75;;;12.10;99.90;;;;;;4861149;29;20056;-96
2022/10/14 23:59:55;;;;;;;101.68;46.70;;;12.10;99.90;;;;;;4844626;29;20049;-96
